Skip Navigation Links
NOAA logo - Click to go to the NOAA homepage
NOAA's National Weather Service
Alaska Aviation Weather Unit
  NWS logo - Click to go to the NWS homepage
Left Navbar Graphic     22 AKDT = 06 GMT

   
NOAA is celebrating 200 years of science, service, and stewardship. Visit the NOAA 200th celebration Web site to learn more.
USA.gov is the U.S. Government's official Web portal to all Federal, state and local government Web resources and services.
Facebook
NWS on Facebook

Important Change Regarding the AAWU Web Presence

 

Over the last several months, the AAWU has been working to navigate its webpages to a nationally supported server. Security, as well as other needs, have necessitated the change.  We have been given an extension for the site changeover while we diligently work at addressing feedback received. As of July 14, 2017, aawu.arh.noaa.gov will be discontinued. The new AAWU web address is weather.gov/aawu. It is now live and will run in-parallel with the old site until it is discontinued on July 14, 2017. Please continue to send any feedback or questions regarding the new webpages to nws.ar.aawu.webauthors@noaa.gov.  Thank you for your patience during this time of transition.
AAWU Home :: Display TAF Add Bookmark
TAF CYZF 260538Z 2606/2706 VRB03KT P6SM SCT080 BKN200
     FM261800 13008KT P6SM BKN080 BKN200 RMK
      NXT FCST BY 261200Z=

METAR CYZF 260000Z 34009KT 290V350 15SM SCT065 25/09 A2983 RMK CU3 SLP109 DENSITY ALT 2100FT= METAR CYZF 260100Z 33011KT 15SM FEW065 SCT120 24/11 A2984 RMK CU2AC1 SLP110 DENSITY ALT 2100FT= METAR CYZF 260200Z 32011KT 15SM FEW080 SCT160 25/10 A2984 RMK AC2AC1 SLP110 DENSITY ALT 2100FT= METAR CYZF 260300Z 34009KT 15SM FEW080 FEW240 24/10 A2985 RMK AC1CI1 SLP112 DENSITY ALT 2000FT= METAR CYZF 260400Z 35004KT 15SM FEW080 FEW240 22/10 A2986 RMK AC1CI1 SLP116 DENSITY ALT 1800FT= METAR CYZF 260500Z 34005KT 15SM FEW080 FEW240 18/10 A2987 RMK AC1CI1 SLP120 DENSITY ALT 1300FT= METAR CYZF 260600Z 36002KT 15SM BKN110 BKN240 19/09 A2988 RMK AC5CI1 CI TR SLP125 DENSITY ALT 1400FT=
 Alaska TAF Map

NOAA's National Weather Service
Alaska Aviation Weather Unit
6930 Sand Lake Road
Anchorage, AK 99502-1845
Disclaimer
Credits
Glossary
Privacy Policy
About Us
Career Opportunities
Contact AAWU Internet Services Site last modified: April, 17th 2012